Time;durP1;ratioP1;P1;durP2;ratioP2;P2;SDS_P1;SDS_P2;PMS_P1;PMS_P2;Temp;Humidity;BMP_temperature;BMP_pressure;BME280_temperature;BME280_humidity;BME280_pressure;Samples;Min_cycle;Max_cycle;Signal;HPM_P1;HPM_P2
2022/04/15 00:02:48;;;;;;;16.27;6.60;;;;;;;13.11;37.79;100744.78;5391051;32;34065;-68
2022/04/15 00:05:52;;;;;;;13.40;6.35;;;;;;;12.69;38.68;100743.09;5424276;32;45012;-68
2022/04/15 00:08:54;;;;;;;16.40;7.43;;;;;;;12.47;39.31;100737.84;5389589;32;34166;-66
2022/04/15 00:12:00;;;;;;;14.40;6.87;;;;;;;12.86;38.68;100737.09;5414565;32;36423;-68
2022/04/15 00:15:02;;;;;;;16.40;6.33;;;;;;;13.34;37.80;100741.19;5413991;32;34969;-67
2022/04/15 00:18:04;;;;;;;12.93;6.37;;;;;;;13.56;37.56;100738.41;5428971;32;34867;-69
2022/04/15 00:21:07;;;;;;;16.30;7.07;;;;;;;13.88;36.54;100731.63;5408706;32;34772;-67
2022/04/15 00:24:09;;;;;;;12.30;6.27;;;;;;;13.32;37.42;100731.59;5394121;32;34815;-67
2022/04/15 00:27:11;;;;;;;14.63;6.13;;;;;;;12.62;39.03;100723.19;5410420;32;35497;-66
2022/04/15 00:30:13;;;;;;;14.43;6.27;;;;;;;13.04;38.60;100716.97;5405193;32;36934;-66
2022/04/15 00:33:15;;;;;;;15.97;5.63;;;;;;;12.73;38.75;100717.44;5422510;32;34691;-66
2022/04/15 00:36:17;;;;;;;14.20;6.40;;;;;;;12.75;38.91;100712.94;5411953;32;34223;-66
2022/04/15 00:39:19;;;;;;;15.50;6.53;;;;;;;12.28;39.70;100712.31;5422935;32;34682;-68
2022/04/15 00:42:22;;;;;;;15.87;6.93;;;;;;;13.06;38.11;100712.47;5397751;32;44619;-66
2022/04/15 00:45:24;;;;;;;12.77;7.10;;;;;;;13.09;38.54;100711.50;5413382;32;34889;-68
2022/04/15 00:48:27;;;;;;;14.53;6.37;;;;;;;13.39;37.90;100710.12;5416104;32;33979;-68
2022/04/15 00:51:29;;;;;;;16.43;6.23;;;;;;;12.71;38.87;100709.59;5402267;32;34776;-66
2022/04/15 00:54:34;;;;;;;14.07;6.82;;;;;;;12.92;38.50;100710.44;5411263;32;33658;-67
2022/04/15 00:57:40;;;;;;;16.13;6.60;;;;;;;13.05;38.32;100709.91;5391531;32;34268;-66
2022/04/15 01:00:42;;;;;;;15.90;7.03;;;;;;;12.57;39.00;100701.41;5405760;32;34652;-68
2022/04/15 01:03:44;;;;;;;12.13;6.60;;;;;;;12.20;40.11;100705.56;5408512;32;35631;-68
2022/04/15 01:06:49;;;;;;;14.07;5.70;;;;;;;12.20;39.85;100700.31;5398767;32;35368;-66
2022/04/15 01:09:52;;;;;;;15.85;6.53;;;;;;;12.31;39.63;100691.09;5409087;32;43631;-66
2022/04/15 01:12:56;;;;;;;17.23;6.70;;;;;;;11.78;41.02;100700.19;5409160;32;35139;-68
2022/04/15 01:16:20;;;;;;;14.13;6.60;;;;;;;11.63;41.32;100706.06;5405680;32;34734;-66
2022/04/15 01:19:22;;;;;;;12.10;5.80;;;;;;;12.27;40.18;100689.50;5395474;32;43052;-66
2022/04/15 01:22:30;;;;;;;14.83;6.17;;;;;;;12.17;40.52;100694.28;5407054;32;34616;-68
2022/04/15 01:25:33;;;;;;;12.50;6.53;;;;;;;11.83;40.99;100690.38;5410953;32;34153;-65
2022/04/15 01:28:35;;;;;;;16.03;6.33;;;;;;;11.88;40.94;100691.06;5390632;32;35430;-68
2022/04/15 01:31:37;;;;;;;12.00;5.80;;;;;;;12.74;39.14;100679.59;5418801;32;35079;-69
2022/04/15 01:34:39;;;;;;;13.13;6.00;;;;;;;12.50;39.56;100676.25;5390070;32;34687;-66
2022/04/15 01:37:42;;;;;;;13.23;6.53;;;;;;;11.62;41.39;100686.78;5412632;32;35082;-69
2022/04/15 01:40:45;;;;;;;12.10;6.60;;;;;;;11.66;41.71;100683.12;5392440;32;35375;-66
2022/04/15 01:43:47;;;;;;;14.63;6.80;;;;;;;12.45;40.08;100673.78;5405936;32;34452;-67
2022/04/15 01:46:49;;;;;;;16.83;6.83;;;;;;;12.19;40.84;100676.66;5410891;32;35598;-67
2022/04/15 01:49:51;;;;;;;13.53;6.43;;;;;;;11.73;41.59;100686.38;5398178;32;43610;-70
2022/04/15 01:52:54;;;;;;;11.90;5.87;;;;;;;11.46;42.67;100676.88;5405611;32;35315;-68
2022/04/15 01:55:56;;;;;;;11.95;5.93;;;;;;;11.19;43.32;100679.62;5401278;32;34378;-68
2022/04/15 01:58:58;;;;;;;19.83;6.60;;;;;;;11.25;43.25;100687.31;5413074;32;34536;-67
2022/04/15 02:02:01;;;;;;;13.40;6.43;;;;;;;11.42;43.09;100685.81;5406495;32;34554;-66
2022/04/15 02:05:03;;;;;;;14.07;6.97;;;;;;;11.99;41.65;100676.63;5415084;32;34718;-68
2022/04/15 02:08:06;;;;;;;12.63;6.47;;;;;;;11.56;42.63;100680.87;5409240;32;34646;-68
2022/04/15 02:11:08;;;;;;;11.10;6.20;;;;;;;11.86;42.17;100670.97;5399955;32;35319;-68
2022/04/15 02:14:12;;;;;;;14.10;6.57;;;;;;;11.81;42.13;100672.94;5424182;32;35414;-68
2022/04/15 02:17:14;;;;;;;12.53;7.07;;;;;;;10.99;44.46;100682.13;5396433;32;35404;-66
2022/04/15 02:20:16;;;;;;;15.10;6.23;;;;;;;11.28;43.84;100679.31;5423131;32;36772;-66
2022/04/15 02:23:18;;;;;;;17.73;6.80;;;;;;;10.94;44.73;100681.44;5404424;32;35703;-68
2022/04/15 02:26:21;;;;;;;14.07;6.60;;;;;;;10.88;44.91;100671.13;5406865;32;37390;-66
2022/04/15 02:29:24;;;;;;;12.73;6.40;;;;;;;11.59;43.46;100672.84;5420043;32;43958;-67
2022/04/15 02:32:26;;;;;;;12.55;6.45;;;;;;;11.57;43.33;100675.56;5403801;32;34762;-68
2022/04/15 02:35:28;;;;;;;14.67;6.97;;;;;;;11.31;44.36;100662.53;5406199;32;34223;-68
2022/04/15 02:38:30;;;;;;;10.53;6.23;;;;;;;11.35;44.04;100664.16;5404752;32;34630;-67
2022/04/15 02:41:32;;;;;;;15.73;6.10;;;;;;;12.08;42.33;100656.00;5406452;32;35604;-71
2022/04/15 02:44:36;;;;;;;12.47;5.93;;;;;;;11.83;42.88;100658.78;5409668;32;34794;-67
2022/04/15 02:47:39;;;;;;;13.07;6.23;;;;;;;11.26;43.62;100664.47;5386739;32;34660;-65
2022/04/15 02:50:41;;;;;;;15.35;6.10;;;;;;;11.08;44.31;100666.91;5401818;32;35251;-68
2022/04/15 02:53:44;;;;;;;28.47;8.00;;;;;;;11.50;43.45;100662.69;5405168;32;34537;-65
2022/04/15 02:56:46;;;;;;;12.83;6.20;;;;;;;11.99;42.12;100656.41;5401385;32;37226;-68
2022/04/15 02:59:48;;;;;;;14.73;6.07;;;;;;;11.30;43.68;100672.22;5407961;32;34943;-66
2022/04/15 03:02:50;;;;;;;18.63;7.00;;;;;;;11.06;44.43;100666.06;5417637;32;35234;-65
2022/04/15 03:05:52;;;;;;;12.50;5.73;;;;;;;10.92;44.71;100670.13;5400643;32;45483;-66
2022/04/15 03:08:55;;;;;;;11.37;5.63;;;;;;;10.97;44.81;100665.56;5407366;32;35161;-68
2022/04/15 03:11:57;;;;;;;15.95;6.55;;;;;;;11.82;43.17;100657.06;5402550;32;34201;-69
2022/04/15 03:14:59;;;;;;;13.73;6.00;;;;;;;11.63;43.43;100666.56;5405414;32;34481;-66
2022/04/15 03:18:01;;;;;;;12.50;5.57;;;;;;;12.41;41.26;100659.00;5417935;32;35130;-68
2022/04/15 03:21:04;;;;;;;27.27;7.40;;;;;;;11.05;42.96;100672.25;5405802;32;34554;-67
2022/04/15 03:24:06;;;;;;;18.52;7.32;;;;;;;10.61;44.26;100671.19;5400228;32;35366;-66
2022/04/15 03:27:10;;;;;;;12.13;5.47;;;;;;;11.26;43.18;100669.75;5395713;32;34842;-66
2022/04/15 03:30:13;;;;;;;12.35;5.57;;;;;;;11.65;41.96;100677.87;5387025;32;34311;-66
2022/04/15 03:33:16;;;;;;;23.13;7.20;;;;;;;11.39;42.02;100674.47;5417871;32;35075;-66
2022/04/15 03:36:18;;;;;;;12.97;5.77;;;;;;;10.47;44.07;100678.72;5388602;32;35237;-68
2022/04/15 03:39:20;;;;;;;21.37;6.30;;;;;;;10.15;44.89;100677.13;5389631;32;35230;-67
2022/04/15 03:42:23;;;;;;;11.17;5.47;;;;;;;10.11;45.50;100673.75;5402927;32;44355;-68
2022/04/15 03:45:25;;;;;;;14.47;5.80;;;;;;;11.06;43.37;100662.59;5411319;32;34450;-65
2022/04/15 03:48:27;;;;;;;10.80;5.13;;;;;;;11.59;42.22;100651.81;5417917;32;34968;-68
2022/04/15 03:51:29;;;;;;;24.57;6.47;;;;;;;10.85;43.89;100666.84;5396620;32;34463;-69
2022/04/15 03:54:31;;;;;;;15.00;6.60;;;;;;;10.66;44.50;100658.75;5420865;32;34987;-68
2022/04/15 03:57:33;;;;;;;20.47;6.07;;;;;;;10.34;45.54;100651.13;5368915;32;34172;-69
2022/04/15 04:00:36;;;;;;;15.53;6.67;;;;;;;10.51;45.23;100657.53;5422101;32;35805;-69
2022/04/15 04:03:38;;;;;;;12.13;5.70;;;;;;;10.51;45.77;100657.53;5405222;32;35087;-68
2022/04/15 04:06:40;;;;;;;11.83;5.83;;;;;;;10.95;44.44;100660.37;5412696;32;34581;-70
2022/04/15 04:09:42;;;;;;;17.80;6.90;;;;;;;10.15;46.62;100656.97;5407512;32;35483;-69
2022/04/15 04:12:45;;;;;;;18.37;7.33;;;;;;;9.98;48.24;100654.91;5391457;32;34949;-68
2022/04/15 04:15:47;;;;;;;16.85;7.25;;;;;;;10.26;48.47;100656.66;5415770;32;34272;-66
2022/04/15 04:18:49;;;;;;;15.43;7.03;;;;;;;10.65;48.04;100651.78;5404349;32;35163;-66
2022/04/15 04:21:51;;;;;;;20.33;7.70;;;;;;;10.38;48.31;100644.88;5417694;32;43736;-68
2022/04/15 04:24:53;;;;;;;25.47;8.77;;;;;;;10.88;47.40;100655.38;5391137;32;34699;-68
2022/04/15 04:27:55;;;;;;;15.63;6.73;;;;;;;11.87;45.17;100654.25;5408512;32;35286;-66
2022/04/15 04:30:58;;;;;;;15.00;7.47;;;;;;;10.94;48.10;100658.63;5402314;32;34575;-69
2022/04/15 04:34:00;;;;;;;15.23;7.27;;;;;;;11.96;45.51;100655.66;5395616;32;34156;-65
2022/04/15 04:37:02;;;;;;;12.97;6.80;;;;;;;11.75;46.03;100642.41;5406782;32;34778;-68
2022/04/15 04:40:05;;;;;;;16.03;7.80;;;;;;;12.09;45.19;100648.97;5402440;32;34645;-68
2022/04/15 04:43:08;;;;;;;14.80;7.53;;;;;;;10.41;49.21;100660.53;5416914;32;35162;-68
2022/04/15 04:46:10;;;;;;;16.02;7.32;;;;;;;10.22;50.07;100663.72;5390291;32;34739;-68
2022/04/15 04:49:13;;;;;;;14.03;6.77;;;;;;;10.34;49.60;100656.38;5409404;32;34513;-65
2022/04/15 04:52:15;;;;;;;18.98;7.65;;;;;;;11.54;46.89;100669.56;5413823;32;34877;-68
2022/04/15 04:55:18;;;;;;;14.07;7.17;;;;;;;11.48;45.55;100670.66;5388939;32;34685;-68
2022/04/15 04:58:20;;;;;;;15.80;7.17;;;;;;;10.76;47.75;100668.06;5403370;32;34356;-69
2022/04/15 05:01:22;;;;;;;17.40;7.20;;;;;;;11.27;45.97;100664.44;5397364;32;45204;-66
2022/04/15 05:04:24;;;;;;;18.57;7.73;;;;;;;12.20;44.05;100667.81;5416516;32;34935;-69
2022/04/15 05:07:27;;;;;;;15.37;7.37;;;;;;;11.21;46.24;100683.09;5408924;32;35210;-68
2022/04/15 05:10:29;;;;;;;20.13;8.13;;;;;;;11.70;44.80;100681.22;5390137;32;34831;-70
2022/04/15 05:13:31;;;;;;;31.30;6.60;;;;;;;11.84;43.67;100676.28;5408811;32;35355;-65
2022/04/15 05:16:33;;;;;;;15.67;6.73;;;;;;;11.68;43.16;100672.53;5395732;32;34399;-70
2022/04/15 05:19:35;;;;;;;12.80;6.67;;;;;;;12.43;41.46;100673.00;5422541;32;35453;-68
2022/04/15 05:22:37;;;;;;;14.50;6.83;;;;;;;13.38;38.23;100674.09;5401776;32;34098;-66
2022/04/15 05:25:39;;;;;;;13.73;6.30;;;;;;;11.76;41.90;100682.75;5405107;32;34547;-68
2022/04/15 05:28:42;;;;;;;13.97;6.70;;;;;;;12.70;40.35;100675.38;5400303;32;35171;-70
2022/04/15 05:31:44;;;;;;;13.03;6.03;;;;;;;13.80;38.25;100678.31;5381972;32;34543;-67
2022/04/15 05:34:46;;;;;;;17.07;7.30;;;;;;;13.53;39.08;100675.19;5418749;32;34618;-69
2022/04/15 05:37:48;;;;;;;12.00;6.47;;;;;;;12.42;41.31;100671.25;5398638;32;34934;-67
2022/04/15 05:40:50;;;;;;;14.13;7.30;;;;;;;12.81;40.00;100680.16;5415960;32;35488;-66
2022/04/15 05:43:53;;;;;;;16.67;7.70;;;;;;;12.38;40.71;100687.28;5378586;32;44976;-66
2022/04/15 05:46:55;;;;;;;18.33;8.13;;;;;;;12.45;40.87;100689.59;5405538;32;35440;-66
2022/04/15 05:49:57;;;;;;;18.83;9.03;;;;;;;13.01;39.31;100672.25;5399062;32;34684;-69
2022/04/15 05:53:04;;;;;;;13.53;7.73;;;;;;;13.32;38.19;100669.09;5403431;32;35373;-66
2022/04/15 05:56:06;;;;;;;15.32;8.07;;;;;;;14.57;35.96;100662.19;5397976;32;34185;-66
2022/04/15 05:59:08;;;;;;;12.68;7.37;;;;;;;15.41;33.93;100670.97;5398008;32;34486;-70
2022/04/15 06:02:11;;;;;;;14.50;7.55;;;;;;;15.79;33.54;100657.44;5419918;32;34724;-67
2022/04/15 06:05:13;;;;;;;12.33;7.57;;;;;;;14.85;35.16;100666.91;5406711;32;33270;-65
2022/04/15 06:08:16;;;;;;;19.67;7.82;;;;;;;14.93;35.50;100663.84;5417793;32;34614;-68
2022/04/15 06:11:18;;;;;;;13.43;7.18;;;;;;;16.55;32.75;100660.94;5399508;32;38388;-69
2022/04/15 06:14:22;;;;;;;14.45;7.90;;;;;;;16.25;32.75;100664.44;5406697;32;34931;-66
2022/04/15 06:17:24;;;;;;;15.00;8.68;;;;;;;15.82;34.02;100667.84;5428087;32;45486;-67
2022/04/15 06:20:27;;;;;;;15.13;8.60;;;;;;;17.13;31.75;100665.41;5400959;32;35053;-68
2022/04/15 06:23:29;;;;;;;15.27;7.87;;;;;;;16.56;33.01;100673.25;5417152;32;34628;-69
2022/04/15 06:26:31;;;;;;;13.55;8.18;;;;;;;16.39;32.86;100676.03;5397013;32;34772;-66
2022/04/15 06:29:33;;;;;;;13.27;7.87;;;;;;;16.44;32.42;100668.69;5419706;32;34576;-69
2022/04/15 06:32:36;;;;;;;14.13;7.85;;;;;;;17.50;31.29;100671.91;5409882;32;35419;-67
2022/04/15 06:35:39;;;;;;;16.02;8.68;;;;;;;17.38;30.75;100666.50;5403293;32;34914;-69
2022/04/15 06:38:41;;;;;;;20.20;9.48;;;;;;;17.94;30.06;100659.41;5421665;32;34115;-67
2022/04/15 06:41:44;;;;;;;17.50;9.13;;;;;;;17.55;30.92;100658.31;5396646;32;34870;-69
2022/04/15 06:44:46;;;;;;;18.92;9.20;;;;;;;18.69;29.42;100663.25;5414297;32;36185;-69
2022/04/15 06:47:49;;;;;;;17.60;9.30;;;;;;;19.48;27.66;100646.13;5404829;32;34623;-69
2022/04/15 06:50:51;;;;;;;15.35;8.77;;;;;;;18.98;28.64;100655.88;5396835;32;45026;-67
2022/04/15 06:53:53;;;;;;;19.70;9.45;;;;;;;17.91;30.37;100639.19;5414258;32;34862;-67
2022/04/15 06:56:55;;;;;;;18.70;9.57;;;;;;;18.88;29.02;100653.03;5376408;32;35297;-66
2022/04/15 06:59:58;;;;;;;16.98;9.00;;;;;;;18.17;29.67;100648.09;5427008;32;34629;-69
2022/04/15 07:03:00;;;;;;;;;;;;;;;18.55;28.74;100652.66;5405003;32;35036;-69
2022/04/15 07:06:02;;;;;;;23.35;9.57;;;;;;;19.44;27.54;100650.81;5419189;32;35446;-66
2022/04/15 07:09:04;;;;;;;16.30;9.43;;;;;;;19.07;27.64;100646.41;5405292;32;36600;-70
2022/04/15 07:12:07;;;;;;;23.87;10.32;;;;;;;21.16;24.83;100643.25;5403299;32;34347;-66
2022/04/15 07:15:09;;;;;;;;;;;;;;;19.77;27.05;100652.03;5401233;32;35197;-70
2022/04/15 07:18:11;;;;;;;18.42;10.23;;;;;;;17.97;29.98;100656.53;5404141;32;34383;-66
2022/04/15 07:21:13;;;;;;;18.80;10.27;;;;;;;19.62;27.29;100648.66;5422667;32;34949;-68
2022/04/15 07:24:15;;;;;;;16.80;9.43;;;;;;;19.39;28.23;100652.97;5375297;32;34673;-66
2022/04/15 07:27:17;;;;;;;18.02;9.88;;;;;;;21.00;25.91;100638.28;5407558;32;34818;-66
2022/04/15 07:30:19;;;;;;;18.27;10.77;;;;;;;23.28;22.45;100636.19;5396564;32;35714;-69
2022/04/15 07:33:21;;;;;;;18.95;10.85;;;;;;;23.72;21.36;100643.00;5409532;32;44794;-66
2022/04/15 07:39:39;;;;;;;20.88;10.52;;;;;;;20.12;25.65;100651.25;5405180;32;34787;-69
2022/04/15 07:42:41;;;;;;;23.30;11.77;;;;;;;21.05;24.39;100644.09;5402569;32;34860;-70
2022/04/15 07:45:43;;;;;;;19.70;10.88;;;;;;;19.56;26.12;100654.41;5380104;32;35542;-69
2022/04/15 07:48:45;;;;;;;17.80;10.13;;;;;;;19.35;26.94;100654.16;5407668;32;34476;-69
2022/04/15 07:51:48;;;;;;;16.98;9.98;;;;;;;21.86;23.42;100648.28;5382043;32;34988;-69
2022/04/15 07:54:50;;;;;;;16.55;9.75;;;;;;;22.62;22.57;100659.81;5403062;32;34388;-67
2022/04/15 07:57:53;;;;;;;18.55;10.45;;;;;;;21.98;23.07;100668.69;5393185;32;46925;-68
2022/04/15 08:00:55;;;;;;;18.33;10.13;;;;;;;19.92;26.06;100688.25;5410140;32;35146;-66
2022/04/15 08:03:58;;;;;;;16.35;9.80;;;;;;;21.70;23.53;100677.25;5420106;32;35556;-67
2022/04/15 08:07:01;;;;;;;24.92;12.75;;;;;;;21.15;24.01;100674.47;5391765;32;34352;-68
2022/04/15 08:10:04;;;;;;;23.10;10.30;;;;;;;20.67;24.73;100679.12;5426132;32;34900;-67
2022/04/15 08:13:07;;;;;;;18.12;9.88;;;;;;;22.09;22.68;100671.37;5394361;32;35485;-69
2022/04/15 08:16:09;;;;;;;18.35;9.60;;;;;;;20.47;24.69;100678.81;5385333;32;34213;-67
2022/04/15 08:19:12;;;;;;;18.90;10.70;;;;;;;20.02;24.92;100678.59;5409621;32;35241;-69
2022/04/15 08:22:14;;;;;;;18.70;10.10;;;;;;;20.71;24.48;100683.28;5395392;32;35259;-69
2022/04/15 08:25:16;;;;;;;14.55;9.73;;;;;;;21.88;22.52;100679.28;5413321;32;35132;-69
2022/04/15 08:28:18;;;;;;;15.57;9.50;;;;;;;20.39;24.27;100673.19;5387389;32;34876;-67
2022/04/15 08:31:20;;;;;;;17.20;9.15;;;;;;;20.25;24.40;100670.72;5406445;32;35384;-69
2022/04/15 08:34:23;;;;;;;20.88;10.82;;;;;;;20.87;23.72;100670.44;5410114;32;45246;-67
2022/04/15 08:37:25;;;;;;;18.02;9.77;;;;;;;22.12;22.28;100668.44;5409203;32;35361;-70
2022/04/15 08:40:31;;;;;;;17.50;9.30;;;;;;;21.95;22.52;100676.97;5412862;32;34147;-70
2022/04/15 08:43:33;;;;;;;16.25;9.93;;;;;;;22.02;21.65;100675.47;5390764;32;34672;-69
2022/04/15 08:46:36;;;;;;;15.73;8.90;;;;;;;23.47;20.14;100663.09;5423633;32;35386;-67
2022/04/15 08:49:38;;;;;;;17.20;9.45;;;;;;;22.96;20.52;100671.19;5408465;32;35687;-68
2022/04/15 08:52:41;;;;;;;17.50;7.43;;;;;;;24.35;19.19;100656.06;5389239;32;34147;-67
2022/04/15 08:55:43;;;;;;;17.98;7.00;;;;;;;25.61;16.92;100666.47;5379887;32;34163;-67
2022/04/15 08:58:45;;;;;;;13.05;6.62;;;;;;;23.82;18.81;100672.50;5389612;32;34587;-67
2022/04/15 09:01:50;;;;;;;14.80;7.03;;;;;;;23.64;18.77;100672.34;5426332;32;34280;-67
2022/04/15 09:04:52;;;;;;;11.77;6.70;;;;;;;22.58;20.08;100663.72;5389802;32;44708;-67
2022/04/15 09:08:04;;;;;;;;;;;;;;;23.21;19.98;100665.38;5403090;32;34616;-68
2022/04/15 09:11:07;;;;;;;13.38;6.85;;;;;;;25.35;17.76;100661.78;5406310;32;35501;-70
2022/04/15 09:14:13;;;;;;;13.38;6.72;;;;;;;23.64;19.77;100658.94;5411887;32;35577;-68
2022/04/15 09:17:17;;;;;;;14.85;7.47;;;;;;;25.03;18.13;100650.56;5409492;32;34785;-70
2022/04/15 09:20:20;;;;;;;13.20;6.75;;;;;;;24.62;18.65;100651.81;5397743;32;34926;-67
2022/04/15 09:23:25;;;;;;;14.43;6.72;;;;;;;24.20;19.06;100654.75;5402679;32;44821;-67
2022/04/15 09:26:27;;;;;;;15.93;6.95;;;;;;;23.93;18.76;100650.06;5380701;32;35786;-69
2022/04/15 09:29:38;;;;;;;13.25;6.95;;;;;;;22.60;20.48;100646.53;5413682;32;34556;-67
2022/04/15 09:32:41;;;;;;;12.57;5.80;;;;;;;22.90;20.55;100650.28;5393564;32;34891;-70
2022/04/15 09:35:45;;;;;;;17.05;7.12;;;;;;;23.05;19.76;100645.41;5410678;32;34671;-68
2022/04/15 09:38:49;;;;;;;12.43;5.95;;;;;;;23.52;19.81;100651.94;5408885;32;34109;-67
2022/04/15 09:41:56;;;;;;;12.65;6.22;;;;;;;24.28;18.83;100647.72;5403023;32;44447;-68
2022/04/15 09:45:20;;;;;;;14.50;6.80;;;;;;;22.28;21.16;100659.09;5410903;32;34830;-68
2022/04/15 09:48:23;;;;;;;10.60;5.70;;;;;;;20.80;23.26;100658.50;5408444;32;44631;-70
2022/04/15 09:51:25;;;;;;;11.07;5.62;;;;;;;21.48;22.54;100660.28;5392478;32;34388;-67
2022/04/15 09:54:28;;;;;;;14.27;5.32;;;;;;;21.34;22.80;100660.53;5422808;32;35626;-66
2022/04/15 09:57:33;;;;;;;;;;;;;;;22.03;21.27;100652.25;5381952;32;35242;-70
2022/04/15 10:00:36;;;;;;;11.38;5.43;;;;;;;21.41;22.15;100648.38;5424092;32;34890;-69
2022/04/15 10:03:42;;;;;;;12.13;4.65;;;;;;;21.65;20.87;100650.91;5394905;32;34832;-70
2022/04/15 10:06:45;;;;;;;14.52;5.18;;;;;;;21.12;20.53;100644.47;5402924;32;35487;-69
2022/04/15 10:09:47;;;;;;;;;;;;;;;21.50;20.34;100636.94;5407779;32;36140;-67
2022/04/15 10:12:49;;;;;;;9.45;5.00;;;;;;;21.38;20.24;100627.22;5401251;32;35696;-69
2022/04/15 10:15:52;;;;;;;14.00;5.15;;;;;;;21.33;20.25;100629.44;5401305;32;47437;-67
2022/04/15 10:18:54;;;;;;;8.57;4.30;;;;;;;21.26;20.32;100625.53;5404977;32;35336;-67
2022/04/15 10:22:01;;;;;;;9.23;4.28;;;;;;;21.04;19.27;100613.84;5416173;32;35531;-67
2022/04/15 10:25:06;;;;;;;9.20;4.28;;;;;;;23.22;17.56;100613.44;5404021;32;35453;-68
2022/04/15 10:28:11;;;;;;;12.80;4.60;;;;;;;23.92;17.13;100613.50;5398426;32;34710;-67
2022/04/15 10:31:16;;;;;;;9.20;4.90;;;;;;;23.34;17.53;100624.94;5418112;32;34346;-69
2022/04/15 10:34:20;;;;;;;11.07;4.43;;;;;;;22.83;18.19;100633.00;5407241;32;35523;-69
2022/04/15 10:37:55;;;;;;;10.18;4.93;;;;;;;21.99;19.25;100635.59;5399873;32;44424;-66
2022/04/15 10:40:57;;;;;;;15.05;4.62;;;;;;;21.44;20.10;100625.88;5411979;32;44872;-68
2022/04/15 10:43:59;;;;;;;17.85;5.07;;;;;;;21.23;20.94;100633.78;5404312;32;34195;-66
2022/04/15 10:47:17;;;;;;;9.37;4.17;;;;;;;22.00;19.61;100637.28;5408818;32;34916;-70
2022/04/15 10:50:19;;;;;;;11.90;5.32;;;;;;;22.93;18.92;100636.63;5411135;32;34830;-68
2022/04/15 10:53:23;;;;;;;13.20;5.05;;;;;;;22.90;19.21;100642.22;5407168;32;42159;-66
2022/04/15 10:56:25;;;;;;;12.75;4.72;;;;;;;23.08;18.41;100637.94;5394622;32;34304;-66
2022/04/15 11:02:56;;;;;;;7.62;4.22;;;;;;;20.76;20.82;100641.88;5406724;32;45064;-67
2022/04/15 11:05:59;;;;;;;;;;;;;;;21.53;20.37;100638.53;5400869;32;34153;-69
2022/04/15 11:09:17;;;;;;;11.45;4.50;;;;;;;22.73;19.10;100637.44;5422071;32;34864;-68
2022/04/15 11:12:30;;;;;;;11.32;4.37;;;;;;;22.92;19.14;100630.37;5401218;32;35343;-69
2022/04/15 11:15:51;;;;;;;;;;;;;;;22.24;19.42;100637.13;5416489;32;35521;-69
2022/04/15 11:18:59;;;;;;;10.30;4.50;;;;;;;22.12;19.45;100633.63;5413309;32;47375;-69
2022/04/15 11:22:02;;;;;;;25.27;4.78;;;;;;;21.40;20.65;100633.31;5397592;32;35481;-68
2022/04/15 11:25:06;;;;;;;;;;;;;;;21.44;21.00;100642.78;5411313;32;34782;-67
2022/04/15 11:28:08;;;;;;;;;;;;;;;20.97;21.84;100639.34;5393436;32;34667;-68
2022/04/15 11:31:20;;;;;;;10.88;4.45;;;;;;;20.78;23.08;100629.25;5421980;32;35554;-67
2022/04/15 11:34:22;;;;;;;9.77;4.40;;;;;;;21.69;21.76;100622.91;5411196;32;43596;-69
2022/04/15 11:37:24;;;;;;;8.90;4.60;;;;;;;21.34;21.77;100641.81;5405078;32;34511;-69
2022/04/15 11:40:34;;;;;;;11.50;4.40;;;;;;;20.92;21.79;100638.88;5419239;32;34667;-67
2022/04/15 11:43:37;;;;;;;11.82;4.43;;;;;;;22.05;20.94;100629.75;5403784;32;34763;-69
2022/04/15 11:46:43;;;;;;;14.00;4.97;;;;;;;22.20;20.78;100630.31;5404183;32;34849;-66
2022/04/15 11:49:47;;;;;;;9.60;4.80;;;;;;;22.56;20.04;100636.22;5390942;32;35698;-67
2022/04/15 11:52:49;;;;;;;13.45;4.55;;;;;;;21.48;21.70;100644.22;5411622;32;35672;-69
2022/04/15 11:55:54;;;;;;;10.35;4.62;;;;;;;21.48;22.10;100638.03;5405810;32;45101;-66
2022/04/15 11:58:59;;;;;;;12.00;4.57;;;;;;;21.27;22.24;100640.59;5385176;32;34858;-71
2022/04/15 12:02:01;;;;;;;12.98;4.12;;;;;;;20.96;23.09;100647.50;5423302;32;35934;-68
2022/04/15 12:05:03;;;;;;;;;;;;;;;21.25;23.35;100647.84;5391017;32;35215;-68
2022/04/15 12:08:08;;;;;;;11.98;4.72;;;;;;;21.20;23.36;100650.91;5423796;32;34694;-69
2022/04/15 12:11:11;;;;;;;11.60;4.43;;;;;;;21.12;24.44;100650.66;5394811;32;34993;-68
2022/04/15 12:14:13;;;;;;;9.15;4.32;;;;;;;21.86;23.83;100659.00;5414900;32;34610;-67
2022/04/15 12:17:15;;;;;;;;;;;;;;;21.39;24.65;100653.00;5420772;32;34887;-70
2022/04/15 12:20:18;;;;;;;12.13;4.18;;;;;;;20.98;25.74;100662.44;5393146;32;34479;-70
2022/04/15 12:23:20;;;;;;;7.97;3.95;;;;;;;20.61;26.99;100668.91;5409719;32;34241;-70
2022/04/15 12:26:22;;;;;;;8.45;4.30;;;;;;;19.80;33.25;100675.81;5393057;32;44863;-67
2022/04/15 12:32:45;;;;;;;10.93;4.90;;;;;;;18.18;40.10;100668.44;5399834;32;36629;-70
2022/04/15 12:36:01;;;;;;;9.27;3.95;;;;;;;18.14;41.40;100661.59;5412979;32;35207;-68
2022/04/15 12:39:05;;;;;;;13.90;5.10;;;;;;;17.75;41.58;100654.41;5423765;32;34643;-66
2022/04/15 12:42:26;;;;;;;12.52;4.93;;;;;;;17.92;42.79;100653.34;5403634;32;34241;-70
2022/04/15 12:45:28;;;;;;;12.60;5.20;;;;;;;17.54;42.86;100652.16;5425128;32;45549;-67
2022/04/15 12:48:30;;;;;;;10.93;4.83;;;;;;;17.46;43.45;100649.16;5404292;32;34127;-68
2022/04/15 12:51:36;;;;;;;11.02;5.30;;;;;;;18.21;41.49;100641.59;5408744;32;34759;-68
2022/04/15 12:55:01;;;;;;;12.48;5.68;;;;;;;17.69;41.98;100650.31;5424395;32;34062;-68
2022/04/15 12:58:26;;;;;;;12.30;5.43;;;;;;;17.19;43.42;100657.03;5369591;32;34969;-67
2022/04/15 13:01:28;;;;;;;12.63;5.80;;;;;;;17.48;43.89;100668.50;5420739;32;44595;-70
2022/04/15 13:04:30;;;;;;;13.00;6.25;;;;;;;17.77;43.28;100647.19;5391374;32;34373;-67
2022/04/15 13:07:33;;;;;;;12.00;5.73;;;;;;;17.80;44.74;100650.50;5388947;32;34593;-68
2022/04/15 13:10:42;;;;;;;10.82;5.65;;;;;;;18.00;41.94;100637.72;5409068;32;34024;-67
2022/04/15 13:14:05;;;;;;;12.90;6.03;;;;;;;17.23;44.15;100647.06;5404878;32;34950;-70
2022/04/15 13:17:07;;;;;;;13.55;6.15;;;;;;;17.74;44.44;100650.91;5402420;32;36388;-68
2022/04/15 13:20:11;;;;;;;12.25;5.55;;;;;;;17.22;49.21;100650.69;5400007;32;36004;-68
2022/04/15 13:23:14;;;;;;;11.57;5.60;;;;;;;17.87;45.64;100643.84;5404399;32;35302;-69
2022/04/15 13:26:16;;;;;;;10.27;5.22;;;;;;;18.35;42.91;100643.34;5410294;32;37071;-68
2022/04/15 13:29:19;;;;;;;8.83;4.97;;;;;;;19.27;40.50;100640.53;5403225;32;34883;-68
2022/04/15 13:32:21;;;;;;;12.63;5.17;;;;;;;18.70;41.44;100640.13;5414132;32;44599;-67
2022/04/15 13:35:23;;;;;;;11.07;4.53;;;;;;;19.37;41.01;100633.56;5387725;32;34511;-68
2022/04/15 13:38:25;;;;;;;8.63;4.60;;;;;;;18.98;40.72;100626.59;5416868;32;34344;-70
2022/04/15 13:41:28;;;;;;;9.18;4.78;;;;;;;18.67;41.05;100634.03;5404005;32;35492;-69
2022/04/15 13:44:33;;;;;;;8.90;4.45;;;;;;;18.51;41.80;100627.19;5412664;32;34770;-67
2022/04/15 13:47:35;;;;;;;9.88;4.85;;;;;;;18.20;43.73;100623.94;5417197;32;35854;-69
2022/04/15 13:50:37;;;;;;;10.73;4.65;;;;;;;19.36;40.32;100618.53;5406653;32;34080;-70
2022/04/15 13:57:00;;;;;;;10.98;4.97;;;;;;;19.39;40.05;100621.00;5379951;32;44725;-69
2022/04/15 14:00:06;;;;;;;14.63;4.95;;;;;;;18.60;40.71;100621.22;5419973;32;34716;-69
2022/04/15 14:03:08;;;;;;;12.05;5.18;;;;;;;18.52;40.68;100629.75;5412232;32;35504;-70
2022/04/15 14:06:10;;;;;;;10.17;4.90;;;;;;;18.45;40.45;100625.81;5404821;32;34739;-69
2022/04/15 14:09:17;;;;;;;12.52;5.72;;;;;;;17.89;42.01;100626.94;5423520;32;34246;-70
2022/04/15 14:12:20;;;;;;;12.18;6.43;;;;;;;18.19;41.63;100616.91;5398414;32;35347;-70
2022/04/15 14:15:24;;;;;;;16.00;5.80;;;;;;;18.34;41.33;100618.53;5395855;32;44480;-66
2022/04/15 14:18:26;;;;;;;13.20;6.80;;;;;;;18.33;41.25;100616.00;5403598;32;34887;-68
2022/04/15 14:21:29;;;;;;;12.20;6.53;;;;;;;18.01;41.52;100611.03;5410288;32;34099;-69